Flight Track Log - Related Links

Times and Time Zones

All times are in EDT time to prevent confusion due to time zone crossing. See the SWA1775 flight status page for this flight to view local times or setup timezone preferences in your user account.

Time Position Orientation Groundspeed Altitude Reporting Facility
EDT Latitude Longitude Course Direction KTS MPH feet Rate Location/Type
Fri 09:27:23 PM 39.1833 -76.8333 211° Southwest 255 293 4,400  Level Potomac TRACON
Fri 09:28:24 PM 39.2167 -76.9167 297° West 261 300 8,700 3,500 Climbing Potomac TRACON
Fri 09:29:23 PM 39.1833 -77.0000 243° Southwest 283 326 11,400 2,800 Climbing Potomac TRACON
Fri 09:30:24 PM 39.1500 -77.1167 250° West 342 394 14,300 2,122 Climbing Potomac TRACON
Fri 09:32:00 PM 39.0936 -77.2365 211° Southwest  Level FlightAware Approximate
Fri 09:32:07 PM 39.1133 -77.3331 258° West 356 410 17,200  Level Washington Center
Fri 09:33:05 PM 39.0950 -77.4558 259° West 356 410 20,300 2,773 Climbing Washington Center
Fri 09:34:06 PM 39.0742 -77.5728 257° West 351 404 22,700 2,479 Climbing Washington Center
Fri 09:35:06 PM 39.0558 -77.6819 258° West 351 404 25,300 2,168 Climbing Washington Center
Fri 09:36:05 PM 39.0303 -77.8175 256° West 351 404 27,000 1,866 Climbing Washington Center
Fri 09:37:05 PM 39.0092 -77.9478 258° West 364 419 29,000 1,736 Climbing Washington Center
Fri 09:38:06 PM 38.9858 -78.0753 257° West 370 426 30,500 2,281 Climbing Washington Center
Fri 09:39:06 PM 38.9622 -78.2000 256° West 370 426 33,600 1,750 Climbing Washington Center
Fri 09:40:06 PM 38.9639 -78.3200 271° West 357 411 34,000 202 Climbing Washington Center
Fri 09:41:05 PM 38.9675 -78.4322 272° West 334 384 34,000  Level Washington Center
Fri 09:42:05 PM 38.9708 -78.5500 272° West 328 377 34,000  Level Washington Center
Fri 09:43:06 PM 38.9742 -78.6675 272° West 328 377 34,000  Level Washington Center
Fri 09:44:07 PM 38.9772 -78.7853 272° West 328 377 34,000 -655 Level Washington Center
Fri 09:45:05 PM 38.9792 -78.8733 272° West 328 377 32,700 -1,950 Descending Washington Center
Fri 09:46:07 PM 38.9856 -79.0125 273° West 323 372 30,100 -1,350 Descending Washington Center
Fri 09:47:05 PM 38.9883 -79.1408 272° West 347 399 30,000 -50 Descending Washington Center
Fri 09:48:06 PM 38.9906 -79.2692 271° West 360 414 30,000  Level Washington Center
Fri 09:49:07 PM 38.9931 -79.3950 272° West 360 414 30,000  Level Washington Center
Fri 09:50:07 PM 38.9972 -79.5233 272° West 365 420 30,000  Level Washington Center
Fri 09:51:06 PM 38.9994 -79.6436 271° West 373 429 30,000  Level Washington Center
Fri 09:52:06 PM 39.0014 -79.7719 271° West 373 429 30,000  Level Washington Center
Fri 09:53:07 PM 39.0047 -79.9139 272° West 362 417 30,000  Level Washington Center
Fri 09:55:07 PM 39.0050 -80.1581 270° West 356 410 30,000  Level Indianapolis Center
Fri 09:56:08 PM 39.0075 -80.2847 271° West 354 407 30,000  Level Indianapolis Center
Fri 09:57:09 PM 39.0081 -80.4114 270° West 355 409 30,000  Level Indianapolis Center
Fri 09:58:10 PM 39.0103 -80.5378 271° West 354 407 30,000  Level Indianapolis Center
Fri 09:59:11 PM 39.0389 -80.6544 288° West 360 414 30,000  Level Indianapolis Center
Fri 10:00:13 PM 39.0869 -80.7614 300° West 349 402 30,000  Level Indianapolis Center
Fri 10:01:14 PM 39.1358 -80.8686 300° West 348 400 30,000  Level Indianapolis Center
Fri 10:02:15 PM 39.1850 -80.9739 301° West 346 398 30,000  Level Indianapolis Center
Fri 10:03:16 PM 39.2431 -81.1028 300° West 346 398 30,000  Level Indianapolis Center
Fri 10:04:17 PM 39.2922 -81.2094 301° West 346 398 30,000  Level Indianapolis Center
Fri 10:05:18 PM 39.3397 -81.3175 300° West 348 400 30,000  Level Indianapolis Center
Fri 10:06:19 PM 39.3883 -81.4233 301° West 345 397 30,000  Level Indianapolis Center
Fri 10:07:20 PM 39.4364 -81.5317 300° West 347 399 30,000  Level Indianapolis Center
Fri 10:08:21 PM 39.4844 -81.6403 300° West 348 400 30,000  Level Indianapolis Center
Fri 10:09:22 PM 39.5328 -81.7489 300° West 349 402 30,000  Level Indianapolis Center
Fri 10:10:23 PM 39.5811 -81.8575 300° West 348 400 30,000  Level Indianapolis Center
Fri 10:11:24 PM 39.6283 -81.9647 300° West 345 397 30,000  Level Indianapolis Center
Fri 10:12:25 PM 39.6772 -82.0750 300° West 349 402 30,000  Level Indianapolis Center
Fri 10:13:26 PM 39.7303 -82.1961 300° West 350 403 30,000  Level Indianapolis Center
Fri 10:14:27 PM 39.7786 -82.3064 300° West 349 402 30,000  Level Indianapolis Center
Fri 10:15:28 PM 39.8275 -82.4183 300° West 355 409 30,000  Level Indianapolis Center
Fri 10:16:29 PM 39.8753 -82.5294 299° West 351 404 30,000  Level Indianapolis Center
Fri 10:17:30 PM 39.9239 -82.6403 300° West 351 404 30,000  Level Indianapolis Center
Fri 10:18:31 PM 39.9717 -82.7519 299° West 350 403 30,000  Level Indianapolis Center
Fri 10:19:32 PM 40.0189 -82.8633 299° West 349 402 30,000  Level Indianapolis Center
Fri 10:20:33 PM 40.0678 -82.9742 300° West 350 403 30,000  Level Indianapolis Center
Fri 10:21:33 PM 40.1150 -83.0867 299° West 352 405 30,000  Level Indianapolis Center
Fri 10:22:34 PM 40.1619 -83.1986 299° West 351 404 30,000  Level Indianapolis Center
Fri 10:23:35 PM 40.2106 -83.3108 300° West 354 407 30,000  Level Indianapolis Center
Fri 10:24:36 PM 40.2642 -83.4417 298° West 351 404 30,000  Level Indianapolis Center
Fri 10:25:37 PM 40.3122 -83.5533 299° West 351 404 30,000 -541 Level Indianapolis Center
Fri 10:26:38 PM 40.3594 -83.6647 299° West 348 400 28,900 -984 Descending Indianapolis Center
Fri 10:27:39 PM 40.4050 -83.7778 298° West 347 399 28,000 -443 Descending Indianapolis Center
Fri 10:28:40 PM 40.4536 -83.8936 299° West 357 411 28,000  Level Indianapolis Center
Fri 10:29:41 PM 40.5019 -84.0106 299° West 360 414 28,000  Level Indianapolis Center
Fri 10:30:42 PM 40.5500 -84.1261 299° West 359 413 28,000  Level Indianapolis Center
Fri 10:31:43 PM 40.5969 -84.2436 298° West 361 415 28,000 -49 Level Indianapolis Center
Fri 10:32:44 PM 40.6361 -84.3664 293° West 362 417 27,900  Descending Indianapolis Center
Fri 10:33:45 PM 40.6775 -84.4892 294° West 354 407 28,000 49 Climbing Chicago Center
Fri 10:34:47 PM 40.7161 -84.6075 293° West 352 405 28,000  Level Chicago Center
Fri 10:35:48 PM 40.7572 -84.7308 294° West 361 415 28,000  Level Chicago Center
Fri 10:36:49 PM 40.7994 -84.8617 293° West 381 438 28,000  Level Chicago Center
Fri 10:37:51 PM 40.8414 -84.9894 293° West 382 440 28,000  Level Chicago Center
Fri 10:38:52 PM 40.8822 -85.1186 293° West 381 438 28,000  Level Chicago Center
Fri 10:39:53 PM 40.9236 -85.2486 293° West 383 441 28,000 -488 Level Chicago Center
Fri 10:40:55 PM 40.9664 -85.3778 294° West 381 438 27,000 -976 Descending Chicago Center
Fri 10:41:56 PM 41.0089 -85.5122 293° West 391 450 26,000 -1,082 Descending Chicago Center
Fri 10:42:57 PM 41.0586 -85.6733 292° West 395 455 24,800 -976 Descending Chicago Center
Fri 10:43:59 PM 41.1025 -85.8081 293° West 397 457 24,000 -390 Descending Chicago Center
Fri 10:45:00 PM 41.1436 -85.9428 292° West 394 453 24,000 -689 Level Chicago Center
Fri 10:46:01 PM 41.1858 -86.0747 293° West 389 448 22,600 -1,902 Descending Chicago Center
Fri 10:47:03 PM 41.2247 -86.2028 292° West 376 433 20,100 -2,390 Descending Chicago Center
Fri 10:48:04 PM 41.2617 -86.3242 292° West 358 412 17,700 -2,361 Descending Chicago Center
Fri 10:49:05 PM 41.2992 -86.4458 292° West 354 407 15,300 -2,508 Descending Chicago Center
Fri 10:50:06 PM 41.3361 -86.5644 293° West 350 403 12,600 -2,098 Descending Chicago Center
Fri 10:51:08 PM 41.3742 -86.6889 292° West 361 415 11,000 -1,268 Descending Chicago Center
Fri 10:52:09 PM 41.4119 -86.8164 292° West 342 394 10,000 -492 Descending Chicago Center
Fri 10:53:10 PM 41.4447 -86.9200 293° West 305 351 10,000 -738 Level Chicago Center
Fri 10:54:11 PM 41.4717 -87.0117 291° West 271 312 8,500 -1,525 Descending Chicago Center
Fri 10:55:12 PM 41.5008 -87.1072 292° West 278 320 6,900 -1,250 Descending Chicago Center
Fri 10:56:11 PM 41.5500 -87.2000 305° West 279 321 6,000 -450 Descending Chicago TRACON
Fri 10:57:12 PM 41.6000 -87.2833 309° West 269 310 6,000 -198 Level Chicago TRACON
Fri 10:58:12 PM 41.6333 -87.3667 298° West 279 321 5,600 -800 Descending Chicago TRACON
Fri 10:59:12 PM 41.6833 -87.4500 309° West 269 310 4,400 -816 Descending Chicago TRACON
Fri 11:00:17 PM 41.7283 -87.5244 309° West 263 303 3,900 -571 Descending Chicago Center
Fri 11:01:18 PM 41.7808 -87.5428 345° North 234 269 3,200 -738 Descending Chicago Center
Fri 11:02:19 PM 41.8053 -87.5958 302° West 198 228 2,400 -650 Descending Chicago Center
Fri 11:03:18 PM 41.8167 -87.6500 286° West 147 169 1,900 -303 Descending Chicago TRACON
Fri 11:04:18 PM 41.8333 -87.7000 294° West 125 144 1,800 -500 Descending Chicago TRACON
Fri 11:05:18 PM 41.8000 -87.7333 217° Southwest 120 138 900 -900 Descending Chicago TRACON
Fri 11:07:00 PM 41.7833 -87.7500 340° North  Level FlightAware Approximate

Login

Don't have an account? Register now (free) for customized features, flight alerts, and more!